createdAt,value
2019-05-22T00:00:00.711Z,49.25
2019-05-22T00:02:37.736Z,49.20
2019-05-22T00:05:15.635Z,49.20
2019-05-22T00:07:47.170Z,49.13
2019-05-22T00:10:19.738Z,49.05
2019-05-22T00:12:50.174Z,49.02
2019-05-22T00:15:21.305Z,49.05
2019-05-22T00:17:53.954Z,48.98
2019-05-22T00:20:24.958Z,49.06
2019-05-22T00:22:55.063Z,49.11
2019-05-22T00:25:33.336Z,49.18
2019-05-22T00:28:04.719Z,49.19
2019-05-22T00:30:36.063Z,49.13
2019-05-22T00:33:08.179Z,49.19
2019-05-22T00:35:38.608Z,49.23
2019-05-22T00:38:09.826Z,49.28
2019-05-22T00:40:47.842Z,49.31
2019-05-22T00:43:18.648Z,49.22
2019-05-22T00:45:50.879Z,49.16
2019-05-22T00:48:25.555Z,49.26
2019-05-22T00:51:10.314Z,49.28
2019-05-22T00:53:55.834Z,49.16
2019-05-22T00:56:39.454Z,49.16
2019-05-22T00:59:14.615Z,49.31
2019-05-22T01:01:47.895Z,49.17
2019-05-22T01:04:20.424Z,49.18
2019-05-22T01:06:52.105Z,49.15
2019-05-22T01:09:37.881Z,49.11
2019-05-22T01:12:11.248Z,49.14
2019-05-22T01:14:43.238Z,49.15
2019-05-22T01:17:13.315Z,49.17
2019-05-22T01:19:47.459Z,49.29
2019-05-22T01:22:17.810Z,49.37
2019-05-22T01:24:51.006Z,49.34
2019-05-22T01:27:22.678Z,49.36
2019-05-22T01:29:53.922Z,49.45
2019-05-22T01:32:29.743Z,49.54
2019-05-22T01:34:59.225Z,49.47
2019-05-22T01:37:28.678Z,49.44
2019-05-22T01:40:05.324Z,49.53
2019-05-22T01:42:45.179Z,49.54
2019-05-22T01:45:18.509Z,49.52
2019-05-22T01:48:00.090Z,49.53
2019-05-22T01:50:57.528Z,49.52
2019-05-22T01:53:36.131Z,49.57
2019-05-22T01:56:08.666Z,49.48
2019-05-22T01:58:41.564Z,49.46
2019-05-22T02:01:20.020Z,49.50
2019-05-22T02:03:51.311Z,49.54
2019-05-22T02:06:23.754Z,49.52
2019-05-22T02:09:05.265Z,49.51
2019-05-22T02:11:35.951Z,49.64
2019-05-22T02:14:14.114Z,49.66
2019-05-22T02:16:56.818Z,49.55
2019-05-22T02:19:20.755Z,49.65
2019-05-22T02:21:52.184Z,49.69
2019-05-22T02:24:23.335Z,49.69
2019-05-22T02:26:53.517Z,49.69
2019-05-22T02:29:23.988Z,49.76
2019-05-22T02:31:56.179Z,49.71
2019-05-22T02:34:26.464Z,49.70
2019-05-22T02:36:57.986Z,49.73
2019-05-22T02:39:33.064Z,49.81
2019-05-22T02:42:08.061Z,49.82
2019-05-22T02:44:40.899Z,49.74
2019-05-22T02:47:20.094Z,49.73
2019-05-22T02:49:43.032Z,49.79
2019-05-22T02:52:13.160Z,49.77
2019-05-22T02:54:43.105Z,49.73
2019-05-22T02:57:12.969Z,49.60
2019-05-22T02:59:43.255Z,49.63
2019-05-22T03:02:16.598Z,49.60
2019-05-22T03:05:04.069Z,49.58
2019-05-22T03:07:33.885Z,49.54
2019-05-22T03:10:03.591Z,49.46
2019-05-22T03:12:36.379Z,49.41
2019-05-22T03:15:11.070Z,49.40
2019-05-22T03:17:43.107Z,49.38
2019-05-22T03:20:18.762Z,49.30
2019-05-22T03:23:31.172Z,49.29
2019-05-22T03:26:02.019Z,49.23
2019-05-22T03:28:32.131Z,49.22
2019-05-22T03:31:02.366Z,49.27
2019-05-22T03:33:32.001Z,49.23
2019-05-22T03:36:09.853Z,49.19
2019-05-22T03:38:41.128Z,49.17
2019-05-22T03:41:12.742Z,49.14
2019-05-22T03:43:46.281Z,49.16
2019-05-22T03:46:26.686Z,49.17
2019-05-22T03:48:57.903Z,49.11
2019-05-22T03:51:27.514Z,49.11
2019-05-22T03:53:57.432Z,49.13
2019-05-22T03:56:27.220Z,49.08
2019-05-22T03:58:57.780Z,49.02
2019-05-22T04:01:29.479Z,49.00
2019-05-22T04:03:59.975Z,49.01
2019-05-22T04:06:30.198Z,48.88
2019-05-22T04:09:05.009Z,48.87
2019-05-22T04:11:38.690Z,48.77
2019-05-22T04:14:08.631Z,48.69
2019-05-22T04:16:38.486Z,48.73
2019-05-22T04:19:08.118Z,48.70
2019-05-22T04:21:37.763Z,48.62
2019-05-22T04:24:07.337Z,48.59
2019-05-22T04:26:37.668Z,48.57
2019-05-22T04:29:07.612Z,48.52
2019-05-22T04:31:49.377Z,48.47
2019-05-22T04:34:19.950Z,48.49
2019-05-22T04:36:51.508Z,48.44
2019-05-22T04:39:24.402Z,48.34
2019-05-22T04:41:55.097Z,48.35
2019-05-22T04:44:25.212Z,48.43
2019-05-22T04:46:54.861Z,48.46
2019-05-22T04:49:26.402Z,48.40
2019-05-22T04:51:56.014Z,48.28
2019-05-22T04:54:26.255Z,48.10
2019-05-22T04:56:56.473Z,48.00
2019-05-22T04:59:26.525Z,47.92
2019-05-22T05:01:57.124Z,47.81
2019-05-22T05:04:26.938Z,47.73
2019-05-22T05:06:56.670Z,47.64
2019-05-22T05:09:26.379Z,47.54
2019-05-22T05:11:55.835Z,47.49
2019-05-22T05:14:25.380Z,47.37
2019-05-22T05:16:54.858Z,47.31
2019-05-22T05:19:24.805Z,47.22
2019-05-22T05:21:54.821Z,47.12
2019-05-22T05:24:24.373Z,47.01
2019-05-22T05:26:54.882Z,46.94
2019-05-22T05:29:33.393Z,46.89
2019-05-22T05:32:03.580Z,46.74
2019-05-22T05:34:57.840Z,46.75
2019-05-22T05:37:27.907Z,46.73
2019-05-22T05:40:27.616Z,46.66
2019-05-22T05:42:58.057Z,46.62
2019-05-22T05:45:30.576Z,46.60
2019-05-22T05:48:00.955Z,46.78
2019-05-22T05:50:39.404Z,46.85
2019-05-22T05:53:09.009Z,46.81
2019-05-22T05:56:02.235Z,47.18
2019-05-22T05:58:32.341Z,47.61
2019-05-22T06:01:13.378Z,47.91
2019-05-22T06:03:43.331Z,48.08
2019-05-22T06:07:00.500Z,48.11
2019-05-22T06:09:29.720Z,48.05
2019-05-22T06:12:05.479Z,47.87
2019-05-22T06:14:36.061Z,47.63
2019-05-22T06:17:43.236Z,47.45
2019-05-22T06:20:17.012Z,47.28
2019-05-22T06:23:26.515Z,47.21
2019-05-22T06:25:58.329Z,47.16
2019-05-22T06:28:30.977Z,47.08
2019-05-22T06:31:01.347Z,47.07
2019-05-22T06:33:34.123Z,47.05
2019-05-22T06:36:12.482Z,47.02
2019-05-22T06:38:59.403Z,46.93
2019-05-22T06:41:32.943Z,46.89
2019-05-22T06:44:40.827Z,46.82
2019-05-22T06:47:15.490Z,46.76
2019-05-22T06:49:51.743Z,46.74
2019-05-22T06:52:22.114Z,46.70
2019-05-22T06:54:53.008Z,46.65
2019-05-22T06:57:25.837Z,46.61
2019-05-22T07:00:12.188Z,46.56
2019-05-22T07:02:34.790Z,46.53
2019-05-22T07:05:06.237Z,46.45
2019-05-22T07:07:35.724Z,46.42
2019-05-22T07:10:07.190Z,46.40
2019-05-22T07:12:37.172Z,46.33
2019-05-22T07:15:34.208Z,46.25
2019-05-22T07:18:05.598Z,46.16
2019-05-22T07:20:38.253Z,46.10
2019-05-22T07:23:09.496Z,46.01
2019-05-22T07:25:40.303Z,45.98
2019-05-22T07:28:10.229Z,45.94
2019-05-22T07:30:40.677Z,45.85
2019-05-22T07:33:10.638Z,45.80
2019-05-22T07:35:56.669Z,45.74
2019-05-22T07:38:13.427Z,45.68
2019-05-22T07:40:44.141Z,45.65
2019-05-22T07:43:14.063Z,45.56
2019-05-22T07:45:43.807Z,45.52
2019-05-22T07:48:14.485Z,45.45
2019-05-22T07:50:49.258Z,45.44
2019-05-22T07:53:19.419Z,45.38
2019-05-22T07:55:52.652Z,45.37
2019-05-22T07:58:23.028Z,45.32
2019-05-22T08:00:55.732Z,45.25
2019-05-22T08:03:26.836Z,45.24
2019-05-22T08:05:58.591Z,45.19
2019-05-22T08:08:31.766Z,45.13
2019-05-22T08:11:01.734Z,45.11
2019-05-22T08:13:32.309Z,45.12
2019-05-22T08:16:02.784Z,45.10
2019-05-22T08:18:36.400Z,45.08
2019-05-22T08:21:06.582Z,45.05
2019-05-22T08:23:37.239Z,45.01
2019-05-22T08:26:08.776Z,45.01
2019-05-22T08:28:40.144Z,44.98
2019-05-22T08:31:10.905Z,44.98
2019-05-22T08:33:43.227Z,44.94
2019-05-22T08:36:13.061Z,44.92
2019-05-22T08:38:44.826Z,44.92
2019-05-22T08:41:16.116Z,44.92
2019-05-22T08:44:14.295Z,44.89
2019-05-22T08:46:18.189Z,44.88
2019-05-22T08:48:49.422Z,44.89
2019-05-22T08:51:19.645Z,44.82
2019-05-22T08:53:49.172Z,44.83
2019-05-22T08:56:20.191Z,44.87
2019-05-22T08:58:51.485Z,44.82
2019-05-22T09:01:22.694Z,44.83
2019-05-22T09:03:52.889Z,44.79
2019-05-22T09:06:22.661Z,44.77
2019-05-22T09:08:52.134Z,44.75
2019-05-22T09:11:21.642Z,44.73
2019-05-22T09:13:51.167Z,44.70
2019-05-22T09:16:21.420Z,44.75
2019-05-22T09:18:51.749Z,44.75
2019-05-22T09:21:21.595Z,44.72
2019-05-22T09:23:51.075Z,44.68
2019-05-22T09:26:20.534Z,44.70
2019-05-22T09:28:50.087Z,44.75
2019-05-22T09:31:19.769Z,44.74
2019-05-22T09:33:49.665Z,44.74
2019-05-22T09:36:19.190Z,44.75
2019-05-22T09:38:52.140Z,44.75
2019-05-22T09:41:20.721Z,44.75
2019-05-22T09:43:50.186Z,44.78
2019-05-22T09:46:20.028Z,44.82
2019-05-22T09:48:49.682Z,44.83
2019-05-22T09:51:19.694Z,44.97
2019-05-22T09:53:49.643Z,44.89
2019-05-22T09:56:19.395Z,45.04
2019-05-22T09:58:49.396Z,44.99
2019-05-22T10:01:19.429Z,45.05
2019-05-22T10:03:49.524Z,45.16
2019-05-22T10:06:21.769Z,45.18
2019-05-22T10:08:51.500Z,45.22
2019-05-22T10:11:21.452Z,45.18
2019-05-22T10:13:51.007Z,45.22
2019-05-22T10:16:20.667Z,45.31
2019-05-22T10:18:52.985Z,45.32
2019-05-22T10:21:22.897Z,45.38
2019-05-22T10:23:52.569Z,45.40
2019-05-22T10:26:22.158Z,45.30
2019-05-22T10:28:51.842Z,45.42
2019-05-22T10:31:22.616Z,45.44
2019-05-22T10:33:52.599Z,45.58
2019-05-22T10:36:22.810Z,45.55
2019-05-22T10:38:52.436Z,45.60
2019-05-22T10:41:22.472Z,45.64
2019-05-22T10:43:52.451Z,45.62
2019-05-22T10:46:22.017Z,45.70
2019-05-22T10:48:52.447Z,45.72
2019-05-22T10:51:22.479Z,45.83
2019-05-22T10:53:52.417Z,45.81
2019-05-22T10:56:22.382Z,45.78
2019-05-22T10:58:51.937Z,45.84
2019-05-22T11:01:21.895Z,45.78
2019-05-22T11:03:51.728Z,45.79
2019-05-22T11:06:21.821Z,45.86
2019-05-22T11:08:51.383Z,45.76
2019-05-22T11:11:21.084Z,45.69
2019-05-22T11:14:00.633Z,45.70
2019-05-22T11:16:22.985Z,45.69
2019-05-22T11:18:52.715Z,45.67
2019-05-22T11:21:22.406Z,45.63
2019-05-22T11:23:53.196Z,45.60
2019-05-22T11:26:23.242Z,45.62
2019-05-22T11:28:53.472Z,45.58
2019-05-22T11:31:23.537Z,45.63
2019-05-22T11:33:53.121Z,45.59
2019-05-22T11:36:23.501Z,45.62
2019-05-22T11:38:52.958Z,45.60
2019-05-22T11:41:22.798Z,45.62
2019-05-22T11:43:52.633Z,45.60
2019-05-22T11:46:22.269Z,45.58
2019-05-22T11:48:52.269Z,45.58
2019-05-22T11:51:23.392Z,45.65
2019-05-22T11:54:08.051Z,45.62
2019-05-22T11:56:25.295Z,45.63
2019-05-22T11:58:55.191Z,45.58
2019-05-22T12:01:25.070Z,45.60
2019-05-22T12:03:54.644Z,45.57
2019-05-22T12:06:24.334Z,45.60
2019-05-22T12:08:54.155Z,45.57
2019-05-22T12:11:24.335Z,45.56
2019-05-22T12:13:54.537Z,45.65
2019-05-22T12:16:24.214Z,45.63
2019-05-22T12:18:58.534Z,45.63
2019-05-22T12:21:26.124Z,45.66
2019-05-22T12:23:55.942Z,45.65
2019-05-22T12:26:26.255Z,45.65
2019-05-22T12:28:56.019Z,45.66
2019-05-22T12:31:25.761Z,45.63
2019-05-22T12:33:55.436Z,45.67
2019-05-22T12:36:25.380Z,45.60
2019-05-22T12:38:55.746Z,45.60
2019-05-22T12:41:26.340Z,45.64
2019-05-22T12:43:57.206Z,45.61
2019-05-22T12:46:28.553Z,45.59
2019-05-22T12:48:58.768Z,45.61
2019-05-22T12:51:30.666Z,45.62
2019-05-22T12:54:00.851Z,45.57
2019-05-22T12:56:31.002Z,45.57
2019-05-22T12:59:00.618Z,45.57
2019-05-22T13:01:31.383Z,45.54
2019-05-22T13:04:02.864Z,45.53
2019-05-22T13:06:32.923Z,45.53
2019-05-22T13:09:03.763Z,45.55
2019-05-22T13:11:33.579Z,45.56
2019-05-22T13:14:03.245Z,45.52
2019-05-22T13:16:33.815Z,45.54
2019-05-22T13:19:03.782Z,45.50
2019-05-22T13:21:36.529Z,45.51
2019-05-22T13:24:18.981Z,45.52
2019-05-22T13:26:51.123Z,45.54
2019-05-22T13:29:23.913Z,45.52
2019-05-22T13:31:55.102Z,45.54
2019-05-22T13:34:26.819Z,45.55
2019-05-22T13:36:57.073Z,45.64
2019-05-22T13:39:26.549Z,45.58
2019-05-22T13:41:56.313Z,45.61
2019-05-22T13:44:26.682Z,45.56
2019-05-22T13:46:56.489Z,45.57
2019-05-22T13:49:28.452Z,45.64
2019-05-22T13:51:57.899Z,45.62
2019-05-22T13:54:28.189Z,45.67
2019-05-22T13:56:58.638Z,45.65
2019-05-22T13:59:31.526Z,45.65
2019-05-22T14:02:01.714Z,45.68
2019-05-22T14:04:31.235Z,45.68
2019-05-22T14:07:01.087Z,45.66
2019-05-22T14:09:30.609Z,45.68
2019-05-22T14:12:00.148Z,45.76
2019-05-22T14:14:29.804Z,45.80
2019-05-22T14:16:59.282Z,45.82
2019-05-22T14:19:28.841Z,45.80
2019-05-22T14:21:58.545Z,45.81
2019-05-22T14:24:28.891Z,45.76
2019-05-22T14:26:58.568Z,45.74
2019-05-22T14:29:28.358Z,45.77
2019-05-22T14:31:58.945Z,45.87
2019-05-22T14:34:28.858Z,45.85
2019-05-22T14:37:00.061Z,45.88
2019-05-22T14:39:30.500Z,45.82
2019-05-22T14:42:00.960Z,45.82
2019-05-22T14:44:33.740Z,45.83
2019-05-22T14:47:13.164Z,45.87
2019-05-22T14:49:33.020Z,45.83
2019-05-22T14:52:03.153Z,45.79
2019-05-22T14:54:33.115Z,45.86
2019-05-22T14:57:02.794Z,45.84
2019-05-22T14:59:32.648Z,45.82
2019-05-22T15:02:03.040Z,45.87
2019-05-22T15:04:32.932Z,45.80
2019-05-22T15:07:03.474Z,45.79
2019-05-22T15:09:33.017Z,45.79
2019-05-22T15:12:03.832Z,45.71
2019-05-22T15:14:33.424Z,45.65
2019-05-22T15:17:03.399Z,45.61
2019-05-22T15:19:33.092Z,45.59
2019-05-22T15:22:02.607Z,45.50
2019-05-22T15:24:32.250Z,45.47
2019-05-22T15:27:03.500Z,45.75
2019-05-22T15:29:33.122Z,46.05
2019-05-22T15:32:03.500Z,45.72
2019-05-22T15:34:33.446Z,45.48
2019-05-22T15:37:04.764Z,45.41
2019-05-22T15:39:35.854Z,45.67
2019-05-22T15:42:06.764Z,46.06
2019-05-22T15:44:37.652Z,46.27
2019-05-22T15:47:07.359Z,46.16
2019-05-22T15:49:39.450Z,46.33
2019-05-22T15:52:16.183Z,46.44
2019-05-22T15:54:47.547Z,46.45
2019-05-22T15:57:19.899Z,46.47
2019-05-22T15:59:50.366Z,46.36
2019-05-22T16:02:22.108Z,46.55
2019-05-22T16:04:52.788Z,46.58
2019-05-22T16:07:23.178Z,46.57
2019-05-22T16:09:52.885Z,46.53
2019-05-22T16:12:22.977Z,46.49
2019-05-22T16:14:53.878Z,46.39
2019-05-22T16:17:24.027Z,46.33
2019-05-22T16:19:56.072Z,46.52
2019-05-22T16:22:25.943Z,46.63
2019-05-22T16:24:55.612Z,46.64
2019-05-22T16:27:25.477Z,46.42
2019-05-22T16:29:56.433Z,46.22
2019-05-22T16:32:29.387Z,46.08
2019-05-22T16:34:59.497Z,46.27
2019-05-22T16:37:29.822Z,46.36
2019-05-22T16:40:00.061Z,46.36
2019-05-22T16:42:31.568Z,46.30
2019-05-22T16:45:01.670Z,46.25
2019-05-22T16:47:33.507Z,46.20
2019-05-22T16:50:04.456Z,46.15
2019-05-22T16:52:35.759Z,46.09
2019-05-22T16:55:07.128Z,46.06
2019-05-22T16:57:37.049Z,46.02
2019-05-22T17:00:07.251Z,45.97
2019-05-22T17:02:39.015Z,45.93
2019-05-22T17:05:11.518Z,45.87
2019-05-22T17:07:42.118Z,45.83
2019-05-22T17:10:14.231Z,45.79
2019-05-22T17:12:46.425Z,45.75
2019-05-22T17:15:17.790Z,45.69
2019-05-22T17:17:48.707Z,45.64
2019-05-22T17:20:22.458Z,45.60
2019-05-22T17:22:52.082Z,45.54
2019-05-22T17:25:22.199Z,45.50
2019-05-22T17:27:52.638Z,45.46
2019-05-22T17:30:25.141Z,45.42
2019-05-22T17:32:54.853Z,45.35
2019-05-22T17:35:25.525Z,45.33
2019-05-22T17:37:56.141Z,45.28
2019-05-22T17:40:26.512Z,45.24
2019-05-22T17:42:57.315Z,45.18
2019-05-22T17:45:28.434Z,45.13
2019-05-22T17:47:58.492Z,45.08
2019-05-22T17:50:29.093Z,45.06
2019-05-22T17:53:00.022Z,45.03
2019-05-22T17:55:30.138Z,44.99
2019-05-22T17:58:00.266Z,44.94
2019-05-22T18:00:34.562Z,44.90
2019-05-22T18:03:05.167Z,44.86
2019-05-22T18:05:36.505Z,44.83
2019-05-22T18:08:07.245Z,44.82
2019-05-22T18:10:40.514Z,44.76
2019-05-22T18:13:10.882Z,44.72
2019-05-22T18:15:41.884Z,44.71
2019-05-22T18:18:12.783Z,44.68
2019-05-22T18:20:44.152Z,44.65
2019-05-22T18:23:14.230Z,44.63
2019-05-22T18:25:44.995Z,44.59
2019-05-22T18:28:14.969Z,44.61
2019-05-22T18:30:44.925Z,44.59
2019-05-22T18:33:15.093Z,44.61
2019-05-22T18:35:45.143Z,44.59
2019-05-22T18:38:14.655Z,44.59
2019-05-22T18:40:44.162Z,44.55
2019-05-22T18:43:14.143Z,44.51
2019-05-22T18:45:44.106Z,44.45
2019-05-22T18:48:14.317Z,44.40
2019-05-22T18:50:44.624Z,44.38
2019-05-22T18:53:14.473Z,44.33
2019-05-22T18:55:43.993Z,44.35
2019-05-22T18:58:13.851Z,44.33
2019-05-22T19:00:43.810Z,44.35
2019-05-22T19:03:14.951Z,44.38
2019-05-22T19:05:45.125Z,44.34
2019-05-22T19:08:14.665Z,44.33
2019-05-22T19:10:44.205Z,44.36
2019-05-22T19:13:14.586Z,44.34
2019-05-22T19:15:44.441Z,44.28
2019-05-22T19:18:14.137Z,44.32
2019-05-22T19:20:44.685Z,44.32
2019-05-22T19:23:14.447Z,44.20
2019-05-22T19:25:44.037Z,44.27
2019-05-22T19:28:13.925Z,44.25
2019-05-22T19:30:44.121Z,44.29
2019-05-22T19:33:15.078Z,44.34
2019-05-22T19:35:45.036Z,44.28
2019-05-22T19:38:14.777Z,44.28
2019-05-22T19:40:44.531Z,44.22
2019-05-22T19:43:14.415Z,44.17
2019-05-22T19:45:44.078Z,44.12
2019-05-22T19:48:14.476Z,44.15
2019-05-22T19:50:45.769Z,44.18
2019-05-22T19:53:19.089Z,44.13
2019-05-22T19:55:48.778Z,44.09
2019-05-22T19:58:22.132Z,44.08
2019-05-22T20:00:52.276Z,44.05
2019-05-22T20:03:22.182Z,44.00
2019-05-22T20:05:52.239Z,44.01
2019-05-22T20:08:22.549Z,43.99
2019-05-22T20:10:52.321Z,43.97
2019-05-22T20:13:23.893Z,43.92
2019-05-22T20:15:55.129Z,43.87
2019-05-22T20:18:25.166Z,43.84
2019-05-22T20:20:54.856Z,43.88
2019-05-22T20:23:35.566Z,43.91
2019-05-22T20:25:56.128Z,43.94
2019-05-22T20:28:26.810Z,43.92
2019-05-22T20:30:56.616Z,43.91
2019-05-22T20:33:27.097Z,43.88
2019-05-22T20:35:56.793Z,43.84
2019-05-22T20:38:27.227Z,43.84
2019-05-22T20:40:56.940Z,43.80
2019-05-22T20:43:27.733Z,43.77
2019-05-22T20:45:58.228Z,43.69
2019-05-22T20:48:30.130Z,43.70
2019-05-22T20:51:01.228Z,43.56
2019-05-22T20:53:52.487Z,43.55
2019-05-22T20:56:07.567Z,43.70
2019-05-22T20:58:39.247Z,43.66
2019-05-22T21:01:09.299Z,43.51
2019-05-22T21:03:39.787Z,43.33
2019-05-22T21:06:13.316Z,43.22
2019-05-22T21:08:45.032Z,43.05
2019-05-22T21:11:18.116Z,43.02
2019-05-22T21:13:47.729Z,43.06
2019-05-22T21:16:17.388Z,43.06
2019-05-22T21:18:52.225Z,43.03
2019-05-22T21:21:22.465Z,43.08
2019-05-22T21:23:52.739Z,43.17
2019-05-22T21:26:22.900Z,43.13
2019-05-22T21:28:53.070Z,43.11
2019-05-22T21:31:24.800Z,43.09
2019-05-22T21:33:56.127Z,43.09
2019-05-22T21:36:27.279Z,43.08
2019-05-22T21:38:57.172Z,43.10
2019-05-22T21:41:26.846Z,43.00
2019-05-22T21:43:56.987Z,43.08
2019-05-22T21:46:27.070Z,43.06
2019-05-22T21:48:58.698Z,43.09
2019-05-22T21:51:28.282Z,43.05
2019-05-22T21:53:58.670Z,42.99
2019-05-22T21:56:28.715Z,42.95
2019-05-22T21:58:58.721Z,42.95
2019-05-22T22:01:35.260Z,42.95
2019-05-22T22:04:23.708Z,42.95
2019-05-22T22:06:55.446Z,42.90
2019-05-22T22:09:26.342Z,42.90
2019-05-22T22:11:57.233Z,42.86
2019-05-22T22:14:26.845Z,42.86
2019-05-22T22:16:56.421Z,42.83
2019-05-22T22:19:27.044Z,42.82
2019-05-22T22:21:57.076Z,42.84
2019-05-22T22:24:28.054Z,42.85
2019-05-22T22:26:59.653Z,42.82
2019-05-22T22:29:29.483Z,42.90
2019-05-22T22:32:00.414Z,42.89
2019-05-22T22:34:40.547Z,42.84
2019-05-22T22:37:11.340Z,42.87
2019-05-22T22:39:43.817Z,42.80
2019-05-22T22:42:15.287Z,42.76
2019-05-22T22:44:50.109Z,42.77
2019-05-22T22:47:25.825Z,42.71
2019-05-22T22:49:57.739Z,42.68
2019-05-22T22:52:29.099Z,42.65
2019-05-22T22:54:59.641Z,42.61
2019-05-22T22:57:30.081Z,42.64
2019-05-22T22:59:59.636Z,42.66
2019-05-22T23:02:31.033Z,42.62
2019-05-22T23:05:01.080Z,42.66
2019-05-22T23:07:32.568Z,42.68
2019-05-22T23:10:04.139Z,42.68
2019-05-22T23:12:35.425Z,42.63
2019-05-22T23:15:05.002Z,42.60
2019-05-22T23:17:36.443Z,42.61
2019-05-22T23:20:05.738Z,42.61
2019-05-22T23:22:34.751Z,42.56
2019-05-22T23:25:06.686Z,42.53
2019-05-22T23:27:39.042Z,42.49
2019-05-22T23:30:10.846Z,42.50
2019-05-22T23:32:43.228Z,42.48
2019-05-22T23:35:13.740Z,42.45
2019-05-22T23:37:44.420Z,42.45
2019-05-22T23:40:17.693Z,42.43
2019-05-22T23:42:48.405Z,42.41
2019-05-22T23:45:22.616Z,42.37
2019-05-22T23:48:04.111Z,42.36
2019-05-22T23:50:37.440Z,42.34
2019-05-22T23:53:07.879Z,42.33
2019-05-22T23:55:38.981Z,42.33
2019-05-22T23:58:11.787Z,42.34
